createdAt,value
2018-02-08T05:56:01.461Z,0.1
2018-02-08T05:58:01.068Z,0.2
2018-02-08T05:59:01.136Z,0.3
2018-02-08T06:00:01.103Z,0.3
2018-02-08T06:01:01.312Z,0.4
2018-02-08T06:02:01.101Z,0.5
2018-02-08T06:04:01.134Z,0.7
2018-02-08T06:05:01.099Z,0.8
2018-02-08T06:06:01.304Z,0.9
2018-02-08T06:07:01.100Z,1.1
2018-02-08T06:09:01.148Z,1.3
2018-02-08T06:10:01.116Z,1.5
2018-02-08T06:11:01.296Z,1.8
2018-02-08T06:12:01.089Z,2.1
2018-02-08T06:13:01.092Z,2.4
2018-02-08T06:14:01.085Z,2.8
2018-02-08T06:15:01.128Z,3.3
2018-02-08T06:16:01.298Z,3.8
2018-02-08T06:17:01.088Z,4.5
2018-02-08T06:18:01.092Z,5.3
2018-02-08T06:19:01.094Z,6.2
2018-02-08T06:20:01.130Z,7.3
2018-02-08T06:21:01.331Z,8.5
2018-02-08T06:22:01.088Z,10.1
2018-02-08T06:23:01.092Z,11.9
2018-02-08T06:24:01.095Z,14.1
2018-02-08T06:25:01.125Z,16.6
2018-02-08T06:26:01.295Z,19.7
2018-02-08T06:27:01.092Z,23.3
2018-02-08T06:28:01.125Z,27.7
2018-02-08T06:29:01.089Z,32.9
2018-02-08T06:30:01.092Z,39.1
2018-02-08T06:31:01.297Z,46.5
2018-02-08T06:32:01.094Z,55.3
2018-02-08T06:33:01.131Z,65.7
2018-02-08T06:34:01.090Z,78.1
2018-02-08T06:35:01.097Z,92.8
2018-02-08T06:36:01.298Z,110.4
2018-02-08T06:37:01.122Z,131.7
2018-02-08T06:38:01.097Z,157.5
2018-02-08T06:39:01.094Z,188.9
2018-02-08T06:40:01.096Z,227.0
2018-02-08T06:41:01.327Z,272.2
2018-02-08T06:42:01.125Z,324.3
2018-02-08T06:43:01.096Z,382.7
2018-02-08T06:44:01.093Z,447.3
2018-02-08T06:45:01.098Z,518.3
2018-02-08T06:46:01.298Z,596.7
2018-02-08T06:47:01.122Z,683.3
2018-02-08T06:48:01.103Z,778.8
2018-02-08T06:49:01.098Z,883.1
2018-02-08T06:50:01.103Z,995.2
2018-02-08T06:51:01.298Z,1114.4
2018-02-08T06:52:01.132Z,1239.8
2018-02-08T06:53:01.099Z,1370.9
2018-02-08T06:54:01.096Z,1506.0
2018-02-08T06:55:01.101Z,1644.2
2018-02-08T06:56:01.299Z,1785.9
2018-02-08T06:57:01.132Z,1932.6
2018-02-08T06:58:01.099Z,2085.3
2018-02-08T06:59:01.098Z,2243.7
2018-02-08T07:00:01.102Z,2407.0
2018-02-08T07:01:01.300Z,2574.5
2018-02-08T07:02:01.137Z,2745.4
2018-02-08T07:03:01.100Z,2919.5
2018-02-08T07:04:01.106Z,3097.1
2018-02-08T07:05:01.110Z,3279.3
2018-02-08T07:06:01.313Z,3466.6
2018-02-08T07:07:01.138Z,3659.8
2018-02-08T07:08:01.105Z,3859.1
2018-02-08T07:09:01.106Z,4065.8
2018-02-08T07:10:01.102Z,4280.1
2018-02-08T07:12:01.325Z,4521.8
2018-02-08T07:13:01.087Z,4771.2
2018-02-08T07:14:01.089Z,5027.9
2018-02-08T07:15:01.090Z,5293.4
2018-02-08T07:16:01.087Z,5566.6
2018-02-08T07:17:01.324Z,5847.8
2018-02-08T07:18:01.091Z,6136.9
2018-02-08T07:19:01.069Z,6433.5
2018-02-08T07:20:01.089Z,6737.3
2018-02-08T07:21:01.089Z,7048.9
2018-02-08T07:22:01.336Z,7369.2
2018-02-08T07:23:01.092Z,7698.0
2018-02-08T07:24:01.092Z,8035.2
2018-02-08T07:25:01.099Z,8380.0
2018-02-08T07:26:01.090Z,8732.1
2018-02-08T07:27:01.337Z,9069.0
2018-02-08T07:28:01.091Z,9409.0
2018-02-08T07:29:01.102Z,9749.5
2018-02-08T07:30:01.093Z,10090.3
2018-02-08T07:31:01.100Z,10435.9
2018-02-08T07:32:01.330Z,10786.5
2018-02-08T07:33:01.095Z,11144.2
2018-02-08T07:34:01.094Z,11505.1
2018-02-08T07:35:01.099Z,11859.0
2018-02-08T07:36:01.099Z,12192.9
2018-02-08T07:37:01.325Z,12501.3
2018-02-08T07:38:01.127Z,12792.7
2018-02-08T07:39:01.097Z,13076.7
2018-02-08T07:40:01.097Z,13362.9
2018-02-08T07:41:01.096Z,13650.5
2018-02-08T07:42:01.355Z,13940.8
2018-02-08T07:43:01.094Z,14233.1
2018-02-08T07:44:01.101Z,14531.3
2018-02-08T07:45:01.093Z,14839.3
2018-02-08T07:46:01.100Z,15158.8
2018-02-08T07:47:01.332Z,15486.6
2018-02-08T07:48:01.094Z,15818.5
2018-02-08T07:49:01.097Z,16161.1
2018-02-08T07:50:01.098Z,16530.6
2018-02-08T07:51:01.095Z,16950.8
2018-02-08T07:52:01.623Z,17434.2
2018-02-08T07:53:01.095Z,17958.3
2018-02-08T07:54:01.100Z,18498.7
2018-02-08T07:55:01.097Z,19047.4
2018-02-08T07:56:01.102Z,19605.1
2018-02-08T07:57:01.306Z,20188.6
2018-02-08T07:58:01.122Z,20798.7
2018-02-08T07:59:01.101Z,21422.4
2018-02-08T08:00:01.098Z,22026.5
2018-02-08T08:01:01.099Z,22585.3
2018-02-08T08:02:01.304Z,23080.4
2018-02-08T08:03:01.141Z,23529.7
2018-02-08T08:04:01.097Z,23966.1
2018-02-08T08:05:01.101Z,24378.3
2018-02-08T08:06:01.071Z,24759.9
2018-02-08T08:07:01.306Z,25111.2
2018-02-08T08:08:01.137Z,25463.9
2018-02-08T08:09:01.109Z,25827.3
2018-02-08T08:10:01.102Z,26186.2
2018-02-08T08:11:01.098Z,26529.1
2018-02-08T08:12:01.306Z,26816.5
2018-02-08T08:13:01.132Z,27000.1
2018-02-08T08:14:01.102Z,27074.3
2018-02-08T08:15:01.101Z,27111.5
2018-02-08T08:16:01.136Z,27180.3
2018-02-08T08:17:01.313Z,27326.1
2018-02-08T08:18:01.141Z,27574.5
2018-02-08T08:19:01.113Z,27928.3
2018-02-08T08:21:01.127Z,28442.9
2018-02-08T08:22:01.300Z,29050.3
2018-02-08T08:23:01.092Z,29689.7
2018-02-08T08:24:01.087Z,30306.3
2018-02-08T08:25:01.088Z,30925.3
2018-02-08T08:26:01.118Z,31554.9
2018-02-08T08:27:01.295Z,32277.9
2018-02-08T08:28:01.087Z,33028.1
2018-02-08T08:29:01.093Z,33850.6
2018-02-08T08:30:01.091Z,34782.1
2018-02-08T08:31:01.122Z,35756.0
2018-02-08T08:32:01.366Z,36762.2
2018-02-08T08:33:01.076Z,37779.1
2018-02-08T08:34:01.096Z,38683.4
2018-02-08T08:35:01.091Z,39430.1
2018-02-08T08:36:01.121Z,39938.3
2018-02-08T08:37:01.301Z,40333.1
2018-02-08T08:38:01.099Z,40696.1
2018-02-08T08:39:01.135Z,40960.7
2018-02-08T08:40:01.121Z,41293.1
2018-02-08T08:41:01.095Z,41499.1
2018-02-08T08:42:01.340Z,41484.5
2018-02-08T08:43:01.099Z,41518.9
2018-02-08T08:44:01.093Z,41886.6
2018-02-08T08:45:01.122Z,42449.3
2018-02-08T08:46:01.099Z,43084.7
2018-02-08T08:47:01.300Z,43788.0
2018-02-08T08:48:01.094Z,44482.0
2018-02-08T08:49:01.094Z,45240.5
2018-02-08T08:50:01.130Z,46100.3
2018-02-08T08:51:01.099Z,47106.9
2018-02-08T08:52:01.303Z,48196.9
2018-02-08T08:53:01.101Z,49393.5
2018-02-08T08:54:01.098Z,50858.6
2018-02-08T08:55:01.132Z,52392.8
2018-02-08T08:56:01.103Z,54012.2
2018-02-08T08:57:01.299Z,55739.1
2018-02-08T08:58:01.102Z,57393.5
2018-02-08T08:59:01.095Z,58693.9
2018-02-08T09:00:01.135Z,59759.5
2018-02-08T09:01:01.099Z,60735.1
2018-02-08T09:02:01.297Z,61587.5
2018-02-08T09:03:01.101Z,62391.2
2018-02-08T09:04:01.149Z,63154.1
2018-02-08T09:05:01.141Z,63845.7
2018-02-08T09:06:01.105Z,64450.4
2018-02-08T09:07:01.312Z,64969.6
2018-02-08T09:08:01.105Z,65350.7
2018-02-08T09:09:01.096Z,65535.0
2018-02-08T09:15:01.264Z,65535.0
2018-02-08T09:30:01.158Z,65535.0
2018-02-08T09:45:01.061Z,65535.0
2018-02-08T10:00:01.161Z,65535.0
2018-02-08T10:15:01.094Z,65535.0
2018-02-08T10:30:01.259Z,65535.0
2018-02-08T10:45:01.393Z,65535.0
2018-02-08T11:00:01.128Z,65535.0
2018-02-08T11:15:01.095Z,65535.0
2018-02-08T11:30:01.161Z,65535.0
2018-02-08T11:45:01.111Z,65535.0
2018-02-08T12:00:01.215Z,65535.0
2018-02-08T12:15:02.425Z,65535.0
2018-02-08T12:17:01.090Z,65534.1
2018-02-08T12:30:01.196Z,65534.1
2018-02-08T12:32:01.299Z,65535.0
2018-02-08T12:45:01.097Z,65535.0
2018-02-08T13:00:06.476Z,65535.0
2018-02-08T13:14:01.127Z,65386.7
2018-02-08T13:15:01.089Z,65386.7
2018-02-08T13:29:01.225Z,65535.0
2018-02-08T13:30:01.093Z,65535.0
2018-02-08T13:45:01.122Z,65535.0
2018-02-08T14:00:01.422Z,65535.0
2018-02-08T14:15:01.463Z,65535.0
2018-02-08T14:30:02.424Z,65535.0
2018-02-08T14:42:01.415Z,64657.7
2018-02-08T14:43:01.098Z,62956.1
2018-02-08T14:44:01.103Z,61091.5
2018-02-08T14:45:01.090Z,59172.0
2018-02-08T14:46:01.091Z,57209.9
2018-02-08T14:47:01.325Z,55225.6
2018-02-08T14:48:01.092Z,53207.9
2018-02-08T14:49:01.093Z,51164.9
2018-02-08T14:50:01.097Z,49097.0
2018-02-08T14:51:01.090Z,47013.7
2018-02-08T14:52:01.320Z,44907.5
2018-02-08T14:53:01.094Z,42781.5
2018-02-08T14:54:01.092Z,40641.3
2018-02-08T14:55:01.068Z,38481.7
2018-02-08T14:56:01.089Z,36283.3
2018-02-08T14:57:01.331Z,34931.0
2018-02-08T14:58:01.097Z,34377.5
2018-02-08T14:59:01.091Z,33957.9
2018-02-08T15:00:01.092Z,33573.1
2018-02-08T15:01:01.060Z,33211.5
2018-02-08T15:02:01.331Z,32847.8
2018-02-08T15:03:01.070Z,32501.2
2018-02-08T15:04:01.090Z,32160.6
2018-02-08T15:05:01.102Z,31823.7
2018-02-08T15:06:01.092Z,31476.1
2018-02-08T15:07:01.338Z,31129.3
2018-02-08T15:08:01.094Z,30783.8
2018-02-08T15:09:01.093Z,30432.9
2018-02-08T15:10:01.099Z,30077.0
2018-02-08T15:11:01.094Z,29736.1
2018-02-08T15:12:01.332Z,29402.3
2018-02-08T15:13:01.068Z,29067.1
2018-02-08T15:14:01.102Z,28730.1
2018-02-08T15:15:01.108Z,28380.3
2018-02-08T15:16:01.097Z,28023.3
2018-02-08T15:17:01.356Z,27669.3
2018-02-08T15:18:01.100Z,27308.7
2018-02-08T15:19:01.120Z,26941.9
2018-02-08T15:20:01.147Z,26568.4
2018-02-08T15:22:01.318Z,26159.3
2018-02-08T15:23:01.082Z,25743.6
2018-02-08T15:24:01.089Z,25317.7
2018-02-08T15:25:01.109Z,24878.1
2018-02-08T15:26:01.085Z,24433.5
2018-02-08T15:27:01.297Z,23987.5
2018-02-08T15:28:01.084Z,23540.4
2018-02-08T15:29:01.131Z,23096.8
2018-02-08T15:30:01.093Z,22661.7
2018-02-08T15:31:01.089Z,22233.5
2018-02-08T15:32:01.305Z,21804.1
2018-02-08T15:33:01.086Z,21365.2
2018-02-08T15:34:01.129Z,20916.1
2018-02-08T15:35:01.087Z,20462.1
2018-02-08T15:36:01.085Z,20006.9
2018-02-08T15:37:01.298Z,19585.3
2018-02-08T15:38:01.089Z,19163.5
2018-02-08T15:39:01.141Z,18740.0
2018-02-08T15:40:01.141Z,18321.5
2018-02-08T15:41:01.094Z,17902.5
2018-02-08T15:42:01.339Z,17480.0
2018-02-08T15:43:01.088Z,17053.9
2018-02-08T15:44:01.094Z,16622.5
2018-02-08T15:45:01.124Z,16186.0
2018-02-08T15:46:01.095Z,15747.3
2018-02-08T15:47:01.309Z,15307.3
2018-02-08T15:48:01.114Z,14868.7
2018-02-08T15:49:01.088Z,14434.7
2018-02-08T15:50:01.093Z,14003.5
2018-02-08T15:51:01.093Z,13575.2
2018-02-08T15:52:01.292Z,13148.3
2018-02-08T15:53:01.117Z,12722.7
2018-02-08T15:54:01.096Z,12297.1
2018-02-08T15:55:01.091Z,11870.3
2018-02-08T15:56:01.114Z,11441.9
2018-02-08T15:57:01.357Z,11010.7
2018-02-08T15:58:01.091Z,10581.2
2018-02-08T15:59:01.096Z,10157.3
2018-02-08T16:00:01.092Z,9737.9
2018-02-08T16:01:01.123Z,9322.9
2018-02-08T16:02:01.307Z,8913.7
2018-02-08T16:03:01.093Z,8512.1
2018-02-08T16:04:01.063Z,8116.9
2018-02-08T16:05:01.092Z,7727.5
2018-02-08T16:06:01.146Z,7344.4
2018-02-08T16:07:01.294Z,6969.2
2018-02-08T16:08:01.089Z,6603.0
2018-02-08T16:09:01.096Z,6248.7
2018-02-08T16:10:01.125Z,5907.1
2018-02-08T16:11:01.064Z,5579.5
2018-02-08T16:12:01.355Z,5268.3
2018-02-08T16:13:01.091Z,4968.8
2018-02-08T16:14:01.098Z,4676.9
2018-02-08T16:15:01.129Z,4393.9
2018-02-08T16:16:01.091Z,4121.1
2018-02-08T16:17:01.297Z,3858.6
2018-02-08T16:18:01.094Z,3605.9
2018-02-08T16:19:01.098Z,3363.5
2018-02-08T16:20:01.125Z,3131.3
2018-02-08T16:21:01.096Z,2908.5
2018-02-08T16:22:01.297Z,2694.3
2018-02-08T16:23:01.093Z,2489.5
2018-02-08T16:24:01.096Z,2294.3
2018-02-08T16:25:01.120Z,2108.0
2018-02-08T16:26:01.094Z,1931.7
2018-02-08T16:27:01.299Z,1764.1
2018-02-08T16:28:01.125Z,1605.6
2018-02-08T16:29:01.097Z,1457.1
2018-02-08T16:30:01.129Z,1318.1
2018-02-08T16:31:01.070Z,1188.3
2018-02-08T16:32:01.301Z,1067.5
2018-02-08T16:33:01.095Z,955.2
2018-02-08T16:34:01.103Z,851.7
2018-02-08T16:35:01.136Z,756.9
2018-02-08T16:36:01.104Z,670.6
2018-02-08T16:37:01.302Z,592.1
2018-02-08T16:38:01.102Z,521.2
2018-02-08T16:39:01.097Z,457.3
2018-02-08T16:40:01.132Z,400.0
2018-02-08T16:41:01.099Z,348.9
2018-02-08T16:43:01.080Z,302.7
2018-02-08T16:44:01.086Z,261.7
2018-02-08T16:45:01.083Z,225.6
2018-02-08T16:46:01.113Z,193.8
2018-02-08T16:47:01.285Z,165.9
2018-02-08T16:48:01.059Z,141.4
2018-02-08T16:49:01.083Z,120.1
2018-02-08T16:50:01.080Z,101.7
2018-02-08T16:51:01.127Z,85.7
2018-02-08T16:52:01.284Z,71.9
2018-02-08T16:53:01.080Z,60.1
2018-02-08T16:54:01.143Z,49.9
2018-02-08T16:55:01.104Z,41.3
2018-02-08T16:56:01.116Z,34.0
2018-02-08T16:57:01.283Z,27.9
2018-02-08T16:58:01.089Z,23.5
2018-02-08T16:59:01.083Z,19.9
2018-02-08T17:00:01.117Z,16.7
2018-02-08T17:01:01.055Z,14.1
2018-02-08T17:02:01.287Z,11.9
2018-02-08T17:03:01.084Z,10.1
2018-02-08T17:04:01.109Z,8.5
2018-02-08T17:05:01.128Z,7.3
2018-02-08T17:06:01.087Z,6.2
2018-02-08T17:07:01.286Z,5.3
2018-02-08T17:08:01.059Z,4.5
2018-02-08T17:09:01.085Z,3.8
2018-02-08T17:10:01.086Z,3.3
2018-02-08T17:11:01.121Z,2.8
2018-02-08T17:12:01.299Z,2.4
2018-02-08T17:13:01.099Z,2.1
2018-02-08T17:14:01.086Z,1.7
2018-02-08T17:15:01.065Z,1.5
2018-02-08T17:16:01.123Z,1.3
2018-02-08T17:17:01.293Z,1.1
2018-02-08T17:18:01.062Z,0.9
2018-02-08T17:19:01.088Z,0.7
2018-02-08T17:20:01.086Z,0.6
2018-02-08T17:21:01.131Z,0.5
2018-02-08T17:22:01.329Z,0.4
2018-02-08T17:23:01.094Z,0.3
2018-02-08T17:25:01.121Z,0.2
2018-02-08T17:26:01.093Z,0.1
